Terminal Aerodrome Forecast
Issued by NWS

Home | Current Version | Previous Version | Text Only | Print | Product List | Glossary On
Versions: 1 2 3 4 5 6 7 8 9 10 11 12 13 14
000
FTUS45 KRIW 301814 AAA
TAFCOD
TAF AMD
KCOD 301814Z 3018/3118 03012KT P6SM -RA SCT012 BKN028
     FM310600 01020G30KT P6SM -RA OVC022
     FM311700 01015G25KT 4SM -SN OVC015
      AMD LTD TO CLD VIS AND WIND=

USA.gov is the U.S. government's official web portal to all federal, state and local government web resources and services.